createdAt,value
2022-08-27T00:00:56.372Z,27.31
2022-08-27T00:03:26.717Z,27.38
2022-08-27T00:05:57.235Z,27.46
2022-08-27T00:08:27.724Z,27.45
2022-08-27T00:10:57.979Z,27.48
2022-08-27T00:13:28.487Z,27.59
2022-08-27T00:15:58.939Z,27.70
2022-08-27T00:18:29.258Z,27.61
2022-08-27T00:20:59.674Z,27.58
2022-08-27T00:23:30.554Z,27.56
2022-08-27T00:26:02.283Z,27.61
2022-08-27T00:28:33.522Z,27.49
2022-08-27T00:31:04.192Z,27.61
2022-08-27T00:33:34.510Z,27.68
2022-08-27T00:36:05.678Z,27.80
2022-08-27T00:38:37.278Z,27.84
2022-08-27T00:41:11.064Z,27.76
2022-08-27T00:44:03.303Z,27.68
2022-08-27T00:46:53.352Z,27.71
2022-08-27T00:49:43.046Z,27.81
2022-08-27T00:52:37.941Z,27.85
2022-08-27T00:55:17.542Z,27.74
2022-08-27T00:57:55.455Z,27.71
2022-08-27T01:00:26.160Z,27.70
2022-08-27T01:02:56.552Z,27.65
2022-08-27T01:05:29.364Z,27.56
2022-08-27T01:08:06.363Z,27.52
2022-08-27T01:10:37.329Z,27.62
2022-08-27T01:13:17.506Z,27.63
2022-08-27T01:15:48.246Z,27.65
2022-08-27T01:18:19.898Z,27.68
2022-08-27T01:21:06.709Z,27.83
2022-08-27T01:23:53.138Z,27.91
2022-08-27T01:26:25.644Z,27.98
2022-08-27T01:28:56.133Z,28.04
2022-08-27T01:31:26.642Z,28.15
2022-08-27T01:34:04.535Z,28.25
2022-08-27T01:36:36.062Z,28.29
2022-08-27T01:39:07.041Z,28.40
2022-08-27T01:41:37.421Z,28.48
2022-08-27T01:44:07.882Z,28.52
2022-08-27T01:46:38.973Z,28.55
2022-08-27T01:49:09.283Z,28.61
2022-08-27T01:51:39.985Z,28.66
2022-08-27T01:54:10.413Z,28.72
2022-08-27T01:56:41.103Z,28.74
2022-08-27T01:59:11.505Z,28.79
2022-08-27T02:01:42.136Z,28.81
2022-08-27T02:04:12.634Z,28.86
2022-08-27T02:06:43.081Z,28.96
2022-08-27T02:09:13.377Z,29.00
2022-08-27T02:11:45.321Z,29.05
2022-08-27T02:14:15.983Z,29.12
2022-08-27T02:16:52.798Z,29.20
2022-08-27T02:19:24.102Z,29.16
2022-08-27T02:21:54.223Z,29.20
2022-08-27T02:24:24.984Z,29.28
2022-08-27T02:26:56.051Z,29.28
2022-08-27T02:29:27.252Z,29.32
2022-08-27T02:31:57.733Z,29.37
2022-08-27T02:34:28.490Z,29.38
2022-08-27T02:36:59.838Z,29.41
2022-08-27T02:39:31.066Z,29.40
2022-08-27T11:05:25.713Z,30.47
2022-08-27T11:08:28.831Z,30.52
2022-08-27T11:11:35.123Z,30.56
2022-08-27T11:19:55.570Z,30.74
2022-08-27T11:22:39.930Z,30.76
2022-08-27T11:25:25.120Z,30.75
2022-08-27T11:27:58.631Z,30.77
2022-08-27T11:34:16.680Z,30.81
2022-08-27T11:36:59.148Z,30.83
2022-08-27T11:39:51.720Z,30.78
2022-08-27T11:42:38.424Z,30.87
2022-08-27T11:48:05.563Z,30.76
2022-08-27T11:50:36.049Z,30.80
2022-08-27T11:53:09.878Z,30.79
2022-08-27T11:55:42.182Z,30.78
2022-08-27T11:58:26.362Z,30.82
2022-08-27T12:01:00.921Z,30.83
2022-08-27T12:03:36.219Z,30.77
2022-08-27T12:06:28.559Z,30.84
2022-08-27T12:09:16.214Z,30.79
2022-08-27T12:12:19.463Z,30.80
2022-08-27T12:15:26.605Z,30.81
2022-08-27T12:21:16.284Z,30.86
2022-08-27T12:24:12.662Z,30.81
2022-08-27T12:26:45.601Z,30.79
2022-08-27T12:29:45.976Z,30.75
2022-08-27T16:00:37.077Z,30.34
2022-08-27T16:05:59.883Z,30.47
2022-08-27T16:08:36.790Z,30.55
2022-08-27T16:13:57.982Z,30.64
2022-08-27T16:16:34.522Z,30.66
2022-08-27T16:19:07.516Z,30.73
2022-08-27T16:32:58.183Z,30.92
2022-08-27T16:35:35.281Z,30.95
2022-08-27T16:38:09.046Z,30.91
2022-08-27T16:40:44.046Z,30.93
2022-08-27T16:46:10.227Z,30.90
2022-08-27T16:49:01.604Z,30.87
2022-08-27T16:54:19.337Z,30.71
2022-08-27T16:56:49.209Z,30.68
2022-08-27T16:59:19.238Z,30.64
2022-08-27T17:07:18.344Z,30.64
2022-08-27T17:09:56.189Z,30.62
2022-08-27T17:12:30.675Z,30.60
2022-08-27T17:15:04.621Z,30.58
2022-08-27T17:17:34.805Z,30.57
2022-08-27T17:20:04.889Z,30.58
2022-08-27T17:22:37.074Z,30.56
2022-08-27T17:25:08.405Z,30.55
2022-08-27T17:27:40.222Z,30.55
2022-08-27T17:30:11.507Z,30.54
2022-08-27T17:32:47.379Z,30.56
2022-08-27T17:35:18.696Z,30.56
2022-08-27T17:37:50.537Z,30.56
2022-08-27T17:40:20.752Z,30.53
2022-08-27T17:42:51.298Z,30.53
2022-08-27T17:45:21.411Z,30.51
2022-08-27T17:47:51.526Z,30.50
2022-08-27T17:50:21.542Z,30.49
2022-08-27T17:52:52.004Z,30.50
2022-08-27T17:55:22.330Z,30.47
2022-08-27T17:57:52.591Z,30.49
2022-08-27T18:00:23.757Z,30.50
2022-08-27T18:02:57.064Z,30.49
2022-08-27T18:05:29.947Z,30.51
2022-08-27T18:08:00.246Z,30.51
2022-08-27T18:10:39.969Z,30.49
2022-08-27T18:13:11.939Z,30.49
2022-08-27T18:15:45.157Z,30.47
2022-08-27T18:18:16.855Z,30.48
2022-08-27T18:20:47.451Z,30.47
2022-08-27T18:23:17.810Z,30.46
2022-08-27T18:25:48.298Z,30.46
2022-08-27T18:28:21.158Z,30.45
2022-08-27T18:30:51.995Z,30.42
2022-08-27T18:33:22.457Z,30.43
2022-08-27T18:35:52.682Z,30.39
2022-08-27T18:38:23.161Z,30.38
2022-08-27T18:40:53.902Z,30.37
2022-08-27T18:43:42.256Z,30.36
2022-08-27T18:46:13.106Z,30.35
2022-08-27T18:48:43.743Z,30.33
2022-08-27T18:51:17.462Z,30.31
2022-08-27T18:53:50.703Z,30.31
2022-08-27T18:56:25.307Z,30.32
2022-08-27T18:58:55.932Z,30.30
2022-08-27T19:01:29.052Z,30.30
2022-08-27T19:04:02.777Z,30.27
2022-08-27T19:06:33.523Z,30.29
2022-08-27T19:09:04.746Z,30.26
2022-08-27T19:11:35.035Z,30.29
2022-08-27T19:16:58.001Z,30.27
2022-08-27T19:19:29.376Z,30.27
2022-08-27T19:22:13.348Z,30.25
2022-08-27T19:24:45.028Z,30.26
2022-08-27T19:27:16.172Z,30.28
2022-08-27T19:29:46.300Z,30.27
2022-08-27T19:32:16.975Z,30.23
2022-08-27T19:37:33.612Z,30.21
2022-08-27T19:40:03.796Z,30.20
2022-08-27T19:42:34.251Z,30.20
2022-08-27T19:45:24.362Z,30.19
2022-08-27T19:47:56.849Z,30.22
2022-08-27T19:50:27.955Z,30.21
2022-08-27T19:52:57.901Z,30.20
2022-08-27T19:55:28.404Z,30.19
2022-08-27T19:57:58.835Z,30.17
2022-08-27T20:00:51.025Z,30.18
2022-08-27T20:03:23.356Z,30.17
2022-08-27T20:05:55.578Z,30.18
2022-08-27T20:08:26.236Z,30.15
2022-08-27T20:10:56.662Z,30.15
2022-08-27T20:13:32.434Z,30.14
2022-08-27T20:16:04.135Z,30.12
2022-08-27T20:18:34.810Z,30.13
2022-08-27T20:21:06.053Z,30.13
2022-08-27T20:23:36.765Z,30.12
2022-08-27T20:26:06.903Z,30.11
2022-08-27T20:28:39.788Z,30.12
2022-08-27T20:31:11.050Z,30.11
2022-08-27T20:33:41.444Z,30.10
2022-08-27T20:36:11.932Z,30.11
2022-08-27T20:38:42.306Z,30.10
2022-08-27T20:41:12.630Z,30.10
2022-08-27T20:43:42.853Z,30.08
2022-08-27T20:46:13.133Z,30.07
2022-08-27T20:48:43.357Z,30.06
2022-08-27T20:51:13.550Z,30.08
2022-08-27T20:53:43.737Z,30.07
2022-08-27T20:56:14.396Z,30.07
2022-08-27T20:59:03.007Z,30.06
2022-08-27T21:01:33.736Z,30.04
2022-08-27T21:04:06.569Z,30.02
2022-08-27T21:06:36.897Z,30.02
2022-08-27T21:09:07.372Z,30.05
2022-08-27T21:11:37.631Z,30.05
2022-08-27T21:14:07.971Z,30.02
2022-08-27T21:16:38.640Z,30.01
2022-08-27T21:19:08.803Z,30.02
2022-08-27T21:21:38.861Z,30.04
2022-08-27T21:24:09.024Z,30.04
2022-08-27T21:26:39.294Z,30.03
2022-08-27T21:29:09.803Z,30.04
2022-08-27T21:31:40.526Z,30.02
2022-08-27T21:34:11.535Z,30.00
2022-08-27T21:36:42.056Z,29.99
2022-08-27T21:39:14.504Z,29.97
2022-08-27T21:41:44.629Z,30.01
2022-08-27T21:44:14.559Z,30.00
2022-08-27T21:46:44.700Z,29.98
2022-08-27T21:49:15.358Z,29.98
2022-08-27T21:51:46.731Z,29.98
2022-08-27T21:54:16.548Z,29.98
2022-08-27T21:56:47.152Z,29.93
2022-08-27T21:59:19.738Z,29.95
2022-08-27T22:01:55.799Z,29.95
2022-08-27T22:04:34.570Z,29.96
2022-08-27T22:07:05.205Z,29.97
2022-08-27T22:09:38.021Z,29.96
2022-08-27T22:12:09.016Z,29.92
2022-08-27T22:14:39.934Z,29.93
2022-08-27T22:17:10.164Z,29.88
2022-08-27T22:19:40.386Z,29.87
2022-08-27T22:22:12.097Z,29.88
2022-08-27T22:24:42.448Z,29.85
2022-08-27T22:27:12.630Z,29.87
2022-08-27T22:29:42.626Z,29.86
2022-08-27T22:32:12.679Z,29.86
2022-08-27T22:34:42.881Z,29.91
2022-08-27T22:37:13.086Z,29.87
2022-08-27T22:39:43.435Z,29.84
2022-08-27T22:42:13.948Z,29.91
2022-08-27T22:44:48.933Z,29.86
2022-08-27T22:47:18.995Z,29.85
2022-08-27T22:49:49.024Z,29.93
2022-08-27T22:52:28.101Z,29.88
2022-08-27T22:54:58.868Z,29.85
2022-08-27T22:57:29.561Z,29.84
2022-08-27T23:00:01.210Z,29.83
2022-08-27T23:02:31.289Z,29.82
2022-08-27T23:05:05.861Z,29.82
2022-08-27T23:07:36.900Z,29.86
2022-08-27T23:10:10.650Z,29.82
2022-08-27T23:12:44.224Z,29.81
2022-08-27T23:15:19.060Z,29.80
2022-08-27T23:17:49.474Z,29.81
2022-08-27T23:20:20.520Z,29.78
2022-08-27T23:22:52.629Z,29.80
2022-08-27T23:25:43.534Z,29.78
2022-08-27T23:28:15.797Z,29.78
2022-08-27T23:30:47.417Z,29.80
2022-08-27T23:33:19.145Z,29.71
2022-08-27T23:35:52.898Z,29.62
2022-08-27T23:38:24.803Z,29.38
2022-08-27T23:40:55.612Z,29.27
2022-08-27T23:43:26.216Z,29.27
2022-08-27T23:45:56.478Z,29.19
2022-08-27T23:48:26.922Z,29.05
2022-08-27T23:50:58.189Z,29.04
2022-08-27T23:53:28.558Z,28.93
2022-08-27T23:56:00.665Z,29.00
2022-08-27T23:58:30.863Z,29.10
